sensor_id;sensor_type;location;lat;lon;timestamp;P1;durP1;ratioP1;P2;durP2;ratioP2
45252;SDS011;63171;50.520;30.486;2022-12-07T00:00:39;14.35;;;9.50;;
45252;SDS011;63171;50.520;30.486;2022-12-07T00:01:30;14.43;;;8.57;;
45252;SDS011;63171;50.520;30.486;2022-12-07T00:02:21;12.75;;;8.45;;
45252;SDS011;63171;50.520;30.486;2022-12-07T00:03:12;14.93;;;9.43;;
45252;SDS011;63171;50.520;30.486;2022-12-07T00:04:02;13.80;;;8.52;;
45252;SDS011;63171;50.520;30.486;2022-12-07T00:04:54;12.43;;;8.82;;
45252;SDS011;63171;50.520;30.486;2022-12-07T00:05:44;16.30;;;9.23;;
45252;SDS011;63171;50.520;30.486;2022-12-07T00:06:36;14.73;;;7.72;;
45252;SDS011;63171;50.520;30.486;2022-12-07T00:07:27;12.68;;;8.55;;
45252;SDS011;63171;50.520;30.486;2022-12-07T00:08:18;15.68;;;7.97;;
45252;SDS011;63171;50.520;30.486;2022-12-07T00:09:09;14.18;;;8.05;;
45252;SDS011;63171;50.520;30.486;2022-12-07T00:10:03;14.13;;;8.35;;
45252;SDS011;63171;50.520;30.486;2022-12-07T00:10:53;19.65;;;9.40;;
45252;SDS011;63171;50.520;30.486;2022-12-07T00:11:44;14.40;;;8.60;;
45252;SDS011;63171;50.520;30.486;2022-12-07T00:12:37;14.35;;;8.15;;
45252;SDS011;63171;50.520;30.486;2022-12-07T00:13:28;13.32;;;8.70;;
45252;SDS011;63171;50.520;30.486;2022-12-07T00:14:19;15.57;;;8.95;;
45252;SDS011;63171;50.520;30.486;2022-12-07T00:15:10;15.77;;;8.20;;
45252;SDS011;63171;50.520;30.486;2022-12-07T00:16:00;12.52;;;7.25;;
45252;SDS011;63171;50.520;30.486;2022-12-07T00:16:51;13.38;;;9.13;;
45252;SDS011;63171;50.520;30.486;2022-12-07T00:17:41;21.90;;;10.32;;
45252;SDS011;63171;50.520;30.486;2022-12-07T00:18:32;9.50;;;7.15;;
45252;SDS011;63171;50.520;30.486;2022-12-07T00:19:22;16.10;;;8.65;;
45252;SDS011;63171;50.520;30.486;2022-12-07T00:20:13;17.92;;;8.63;;
45252;SDS011;63171;50.520;30.486;2022-12-07T00:21:03;15.30;;;9.18;;
45252;SDS011;63171;50.520;30.486;2022-12-07T00:21:56;12.85;;;7.20;;
45252;SDS011;63171;50.520;30.486;2022-12-07T00:22:46;12.82;;;8.18;;
45252;SDS011;63171;50.520;30.486;2022-12-07T00:23:37;12.90;;;8.00;;
45252;SDS011;63171;50.520;30.486;2022-12-07T00:24:27;22.15;;;8.38;;
45252;SDS011;63171;50.520;30.486;2022-12-07T00:25:18;20.00;;;8.35;;
45252;SDS011;63171;50.520;30.486;2022-12-07T00:26:08;12.48;;;7.97;;
45252;SDS011;63171;50.520;30.486;2022-12-07T00:27:00;10.43;;;7.00;;
45252;SDS011;63171;50.520;30.486;2022-12-07T00:27:51;13.70;;;9.18;;
45252;SDS011;63171;50.520;30.486;2022-12-07T00:28:44;13.80;;;8.23;;
45252;SDS011;63171;50.520;30.486;2022-12-07T00:29:35;17.67;;;7.93;;
45252;SDS011;63171;50.520;30.486;2022-12-07T00:30:26;17.17;;;9.45;;
45252;SDS011;63171;50.520;30.486;2022-12-07T00:31:17;11.02;;;8.90;;
45252;SDS011;63171;50.520;30.486;2022-12-07T00:32:08;13.68;;;9.77;;
45252;SDS011;63171;50.520;30.486;2022-12-07T00:32:59;15.52;;;9.48;;
45252;SDS011;63171;50.520;30.486;2022-12-07T00:33:49;17.00;;;8.35;;
45252;SDS011;63171;50.520;30.486;2022-12-07T00:34:39;12.75;;;7.80;;
45252;SDS011;63171;50.520;30.486;2022-12-07T00:35:29;16.98;;;8.48;;
45252;SDS011;63171;50.520;30.486;2022-12-07T00:36:20;16.27;;;8.52;;
45252;SDS011;63171;50.520;30.486;2022-12-07T00:37:13;12.40;;;8.48;;
45252;SDS011;63171;50.520;30.486;2022-12-07T00:38:04;13.73;;;8.15;;
45252;SDS011;63171;50.520;30.486;2022-12-07T00:38:54;13.88;;;8.85;;
45252;SDS011;63171;50.520;30.486;2022-12-07T00:39:47;11.80;;;7.90;;
45252;SDS011;63171;50.520;30.486;2022-12-07T00:40:37;13.57;;;8.20;;
45252;SDS011;63171;50.520;30.486;2022-12-07T00:42:17;16.67;;;9.23;;
45252;SDS011;63171;50.520;30.486;2022-12-07T00:43:08;11.82;;;8.63;;
45252;SDS011;63171;50.520;30.486;2022-12-07T00:43:57;13.98;;;9.00;;
45252;SDS011;63171;50.520;30.486;2022-12-07T00:44:48;16.52;;;8.68;;
45252;SDS011;63171;50.520;30.486;2022-12-07T00:45:38;18.30;;;10.30;;
45252;SDS011;63171;50.520;30.486;2022-12-07T00:46:29;16.15;;;8.80;;
45252;SDS011;63171;50.520;30.486;2022-12-07T00:47:19;16.15;;;8.63;;
45252;SDS011;63171;50.520;30.486;2022-12-07T00:48:10;17.27;;;9.75;;
45252;SDS011;63171;50.520;30.486;2022-12-07T00:49:00;15.15;;;8.70;;
45252;SDS011;63171;50.520;30.486;2022-12-07T00:49:50;14.63;;;9.38;;
45252;SDS011;63171;50.520;30.486;2022-12-07T00:50:40;16.05;;;9.40;;
45252;SDS011;63171;50.520;30.486;2022-12-07T00:51:31;14.45;;;8.82;;
45252;SDS011;63171;50.520;30.486;2022-12-07T00:52:22;13.70;;;9.23;;
45252;SDS011;63171;50.520;30.486;2022-12-07T00:53:13;16.80;;;9.70;;
45252;SDS011;63171;50.520;30.486;2022-12-07T00:54:04;16.20;;;9.20;;
45252;SDS011;63171;50.520;30.486;2022-12-07T00:54:54;17.27;;;9.95;;
45252;SDS011;63171;50.520;30.486;2022-12-07T00:55:44;12.63;;;8.75;;
45252;SDS011;63171;50.520;30.486;2022-12-07T00:56:36;19.33;;;9.10;;
45252;SDS011;63171;50.520;30.486;2022-12-07T00:57:25;17.58;;;10.52;;
45252;SDS011;63171;50.520;30.486;2022-12-07T00:58:16;13.30;;;9.05;;
45252;SDS011;63171;50.520;30.486;2022-12-07T00:59:06;11.05;;;7.97;;
45252;SDS011;63171;50.520;30.486;2022-12-07T00:59:57;12.52;;;8.85;;
45252;SDS011;63171;50.520;30.486;2022-12-07T01:02:39;15.07;;;8.38;;
45252;SDS011;63171;50.520;30.486;2022-12-07T01:03:30;13.45;;;9.00;;
45252;SDS011;63171;50.520;30.486;2022-12-07T01:04:20;15.77;;;8.80;;
45252;SDS011;63171;50.520;30.486;2022-12-07T01:05:11;18.48;;;9.90;;
45252;SDS011;63171;50.520;30.486;2022-12-07T01:06:00;13.73;;;7.97;;
45252;SDS011;63171;50.520;30.486;2022-12-07T01:06:53;32.83;;;10.43;;
45252;SDS011;63171;50.520;30.486;2022-12-07T01:07:44;16.23;;;9.85;;
45252;SDS011;63171;50.520;30.486;2022-12-07T01:08:35;14.85;;;9.35;;
45252;SDS011;63171;50.520;30.486;2022-12-07T01:09:25;18.02;;;9.82;;
45252;SDS011;63171;50.520;30.486;2022-12-07T01:10:16;17.70;;;10.23;;
45252;SDS011;63171;50.520;30.486;2022-12-07T01:11:06;18.38;;;10.02;;
45252;SDS011;63171;50.520;30.486;2022-12-07T01:11:58;24.27;;;10.75;;
45252;SDS011;63171;50.520;30.486;2022-12-07T01:12:47;21.60;;;10.73;;
45252;SDS011;63171;50.520;30.486;2022-12-07T01:13:38;20.10;;;9.68;;
45252;SDS011;63171;50.520;30.486;2022-12-07T01:14:28;18.00;;;9.85;;
45252;SDS011;63171;50.520;30.486;2022-12-07T01:15:19;20.02;;;9.95;;
45252;SDS011;63171;50.520;30.486;2022-12-07T01:16:09;15.00;;;9.00;;
45252;SDS011;63171;50.520;30.486;2022-12-07T01:17:01;16.33;;;9.63;;
45252;SDS011;63171;50.520;30.486;2022-12-07T01:17:53;14.82;;;9.73;;
45252;SDS011;63171;50.520;30.486;2022-12-07T01:18:45;12.75;;;8.77;;
45252;SDS011;63171;50.520;30.486;2022-12-07T01:19:37;19.92;;;10.57;;
45252;SDS011;63171;50.520;30.486;2022-12-07T01:20:28;12.10;;;8.20;;
45252;SDS011;63171;50.520;30.486;2022-12-07T01:21:18;17.42;;;9.48;;
45252;SDS011;63171;50.520;30.486;2022-12-07T01:22:10;15.48;;;9.50;;
45252;SDS011;63171;50.520;30.486;2022-12-07T01:23:02;18.25;;;10.40;;
45252;SDS011;63171;50.520;30.486;2022-12-07T01:23:53;13.52;;;9.18;;
45252;SDS011;63171;50.520;30.486;2022-12-07T01:24:43;21.55;;;9.38;;
45252;SDS011;63171;50.520;30.486;2022-12-07T01:25:36;14.23;;;8.75;;
45252;SDS011;63171;50.520;30.486;2022-12-07T01:26:26;15.60;;;10.48;;
45252;SDS011;63171;50.520;30.486;2022-12-07T01:27:17;10.98;;;8.13;;
45252;SDS011;63171;50.520;30.486;2022-12-07T01:28:07;11.07;;;8.10;;
45252;SDS011;63171;50.520;30.486;2022-12-07T01:29:01;15.45;;;8.75;;
45252;SDS011;63171;50.520;30.486;2022-12-07T01:30:41;11.02;;;8.50;;
45252;SDS011;63171;50.520;30.486;2022-12-07T01:31:31;17.88;;;9.95;;
45252;SDS011;63171;50.520;30.486;2022-12-07T01:32:22;16.50;;;8.23;;
45252;SDS011;63171;50.520;30.486;2022-12-07T01:33:12;15.27;;;8.80;;
45252;SDS011;63171;50.520;30.486;2022-12-07T01:34:03;13.38;;;8.63;;
45252;SDS011;63171;50.520;30.486;2022-12-07T01:34:52;18.17;;;8.65;;
45252;SDS011;63171;50.520;30.486;2022-12-07T01:35:43;15.02;;;9.65;;
45252;SDS011;63171;50.520;30.486;2022-12-07T01:36:34;19.05;;;11.07;;
45252;SDS011;63171;50.520;30.486;2022-12-07T01:37:26;15.07;;;10.10;;
45252;SDS011;63171;50.520;30.486;2022-12-07T01:38:18;14.95;;;8.10;;
45252;SDS011;63171;50.520;30.486;2022-12-07T01:39:08;16.73;;;9.43;;
45252;SDS011;63171;50.520;30.486;2022-12-07T01:40:53;15.10;;;8.94;;
45252;SDS011;63171;50.520;30.486;2022-12-07T01:41:44;13.20;;;9.40;;
45252;SDS011;63171;50.520;30.486;2022-12-07T01:42:35;13.82;;;8.43;;
45252;SDS011;63171;50.520;30.486;2022-12-07T01:43:25;18.00;;;8.50;;
45252;SDS011;63171;50.520;30.486;2022-12-07T01:44:18;15.38;;;8.52;;
45252;SDS011;63171;50.520;30.486;2022-12-07T01:46:26;17.45;;;8.60;;
45252;SDS011;63171;50.520;30.486;2022-12-07T01:47:16;14.48;;;10.30;;
45252;SDS011;63171;50.520;30.486;2022-12-07T01:48:06;13.68;;;8.90;;
45252;SDS011;63171;50.520;30.486;2022-12-07T01:48:59;14.48;;;8.90;;
45252;SDS011;63171;50.520;30.486;2022-12-07T01:49:50;16.05;;;9.23;;
45252;SDS011;63171;50.520;30.486;2022-12-07T01:50:41;18.77;;;9.45;;
45252;SDS011;63171;50.520;30.486;2022-12-07T01:51:32;14.25;;;8.55;;
45252;SDS011;63171;50.520;30.486;2022-12-07T01:52:25;20.45;;;9.30;;
45252;SDS011;63171;50.520;30.486;2022-12-07T01:53:20;14.93;;;8.82;;
45252;SDS011;63171;50.520;30.486;2022-12-07T01:54:15;14.63;;;9.50;;
45252;SDS011;63171;50.520;30.486;2022-12-07T01:55:07;13.90;;;9.10;;
45252;SDS011;63171;50.520;30.486;2022-12-07T01:56:01;16.40;;;8.52;;
45252;SDS011;63171;50.520;30.486;2022-12-07T01:56:51;11.65;;;8.35;;
45252;SDS011;63171;50.520;30.486;2022-12-07T01:57:45;15.07;;;8.93;;
45252;SDS011;63171;50.520;30.486;2022-12-07T01:58:38;15.18;;;8.38;;
45252;SDS011;63171;50.520;30.486;2022-12-07T01:59:29;15.80;;;9.70;;
45252;SDS011;63171;50.520;30.486;2022-12-07T02:00:19;15.65;;;7.75;;
45252;SDS011;63171;50.520;30.486;2022-12-07T02:01:09;14.46;;;8.42;;
45252;SDS011;63171;50.520;30.486;2022-12-07T02:02:00;13.15;;;7.82;;
45252;SDS011;63171;50.520;30.486;2022-12-07T02:02:54;14.35;;;8.43;;
45252;SDS011;63171;50.520;30.486;2022-12-07T02:03:49;13.38;;;8.05;;
45252;SDS011;63171;50.520;30.486;2022-12-07T02:04:40;19.25;;;7.32;;
45252;SDS011;63171;50.520;30.486;2022-12-07T02:05:30;13.73;;;8.18;;
45252;SDS011;63171;50.520;30.486;2022-12-07T02:06:23;19.58;;;8.55;;
45252;SDS011;63171;50.520;30.486;2022-12-07T02:07:14;15.10;;;8.00;;
45252;SDS011;63171;50.520;30.486;2022-12-07T02:08:05;13.52;;;9.65;;
45252;SDS011;63171;50.520;30.486;2022-12-07T02:08:58;13.20;;;8.02;;
45252;SDS011;63171;50.520;30.486;2022-12-07T02:09:49;12.95;;;8.45;;
45252;SDS011;63171;50.520;30.486;2022-12-07T02:10:38;12.63;;;7.75;;
45252;SDS011;63171;50.520;30.486;2022-12-07T02:11:30;10.45;;;7.72;;
45252;SDS011;63171;50.520;30.486;2022-12-07T02:12:20;15.27;;;7.25;;
45252;SDS011;63171;50.520;30.486;2022-12-07T02:13:14;12.93;;;8.07;;
45252;SDS011;63171;50.520;30.486;2022-12-07T02:14:06;10.48;;;7.47;;
45252;SDS011;63171;50.520;30.486;2022-12-07T02:14:56;15.43;;;8.23;;
45252;SDS011;63171;50.520;30.486;2022-12-07T02:17:04;12.98;;;8.38;;
45252;SDS011;63171;50.520;30.486;2022-12-07T02:18:01;15.23;;;7.88;;
45252;SDS011;63171;50.520;30.486;2022-12-07T02:19:01;13.35;;;8.73;;
45252;SDS011;63171;50.520;30.486;2022-12-07T02:20:17;14.77;;;6.85;;
45252;SDS011;63171;50.520;30.486;2022-12-07T02:21:18;14.68;;;7.97;;
45252;SDS011;63171;50.520;30.486;2022-12-07T02:22:18;12.52;;;7.93;;
45252;SDS011;63171;50.520;30.486;2022-12-07T02:23:41;14.57;;;7.35;;
45252;SDS011;63171;50.520;30.486;2022-12-07T02:24:51;15.02;;;8.02;;
45252;SDS011;63171;50.520;30.486;2022-12-07T02:25:52;14.30;;;8.10;;
45252;SDS011;63171;50.520;30.486;2022-12-07T02:27:05;16.33;;;8.27;;
45252;SDS011;63171;50.520;30.486;2022-12-07T02:28:04;11.00;;;7.95;;
45252;SDS011;63171;50.520;30.486;2022-12-07T02:29:03;13.15;;;7.28;;
45252;SDS011;63171;50.520;30.486;2022-12-07T02:30:05;10.23;;;7.25;;
45252;SDS011;63171;50.520;30.486;2022-12-07T02:30:57;13.82;;;8.77;;
45252;SDS011;63171;50.520;30.486;2022-12-07T02:31:56;15.52;;;8.75;;
45252;SDS011;63171;50.520;30.486;2022-12-07T02:32:54;13.07;;;7.72;;
45252;SDS011;63171;50.520;30.486;2022-12-07T02:33:50;18.52;;;8.90;;
45252;SDS011;63171;50.520;30.486;2022-12-07T02:34:48;19.83;;;9.73;;
45252;SDS011;63171;50.520;30.486;2022-12-07T02:35:41;11.95;;;8.40;;
45252;SDS011;63171;50.520;30.486;2022-12-07T02:36:36;14.40;;;9.82;;
45252;SDS011;63171;50.520;30.486;2022-12-07T02:37:34;12.75;;;9.65;;
45252;SDS011;63171;50.520;30.486;2022-12-07T02:38:29;16.08;;;11.75;;
45252;SDS011;63171;50.520;30.486;2022-12-07T02:39:28;17.23;;;11.40;;
45252;SDS011;63171;50.520;30.486;2022-12-07T02:40:27;16.75;;;10.98;;
45252;SDS011;63171;50.520;30.486;2022-12-07T02:41:22;17.80;;;11.52;;
45252;SDS011;63171;50.520;30.486;2022-12-07T02:42:15;16.13;;;11.45;;
45252;SDS011;63171;50.520;30.486;2022-12-07T02:43:10;21.25;;;12.55;;
45252;SDS011;63171;50.520;30.486;2022-12-07T02:44:07;20.73;;;13.10;;
45252;SDS011;63171;50.520;30.486;2022-12-07T02:45:02;23.60;;;12.05;;
45252;SDS011;63171;50.520;30.486;2022-12-07T02:45:54;19.95;;;11.48;;
45252;SDS011;63171;50.520;30.486;2022-12-07T02:46:49;16.70;;;11.27;;
45252;SDS011;63171;50.520;30.486;2022-12-07T02:47:43;14.95;;;10.70;;
45252;SDS011;63171;50.520;30.486;2022-12-07T02:48:37;14.93;;;10.40;;
45252;SDS011;63171;50.520;30.486;2022-12-07T02:49:29;14.93;;;10.43;;
45252;SDS011;63171;50.520;30.486;2022-12-07T02:50:21;14.35;;;10.90;;
45252;SDS011;63171;50.520;30.486;2022-12-07T02:51:11;16.70;;;11.98;;
45252;SDS011;63171;50.520;30.486;2022-12-07T02:52:02;20.63;;;11.35;;
45252;SDS011;63171;50.520;30.486;2022-12-07T02:52:52;18.95;;;11.52;;
45252;SDS011;63171;50.520;30.486;2022-12-07T02:53:43;17.83;;;10.38;;
45252;SDS011;63171;50.520;30.486;2022-12-07T02:54:33;13.63;;;10.18;;
45252;SDS011;63171;50.520;30.486;2022-12-07T02:55:26;14.70;;;10.95;;
45252;SDS011;63171;50.520;30.486;2022-12-07T02:56:25;12.93;;;9.57;;
45252;SDS011;63171;50.520;30.486;2022-12-07T02:57:27;16.58;;;11.32;;
45252;SDS011;63171;50.520;30.486;2022-12-07T02:58:32;15.48;;;10.13;;
45252;SDS011;63171;50.520;30.486;2022-12-07T02:59:35;15.38;;;11.32;;
45252;SDS011;63171;50.520;30.486;2022-12-07T03:00:38;16.23;;;10.18;;
45252;SDS011;63171;50.520;30.486;2022-12-07T03:01:40;15.82;;;10.05;;
45252;SDS011;63171;50.520;30.486;2022-12-07T03:02:41;19.10;;;10.48;;
45252;SDS011;63171;50.520;30.486;2022-12-07T03:03:43;18.60;;;11.25;;
45252;SDS011;63171;50.520;30.486;2022-12-07T03:04:42;12.63;;;9.38;;
45252;SDS011;63171;50.520;30.486;2022-12-07T03:06:56;14.23;;;8.40;;
45252;SDS011;63171;50.520;30.486;2022-12-07T03:08:51;15.02;;;9.30;;
45252;SDS011;63171;50.520;30.486;2022-12-07T03:09:51;16.63;;;9.32;;
45252;SDS011;63171;50.520;30.486;2022-12-07T03:10:50;23.58;;;10.75;;
45252;SDS011;63171;50.520;30.486;2022-12-07T03:11:48;21.75;;;9.68;;
45252;SDS011;63171;50.520;30.486;2022-12-07T03:12:44;15.07;;;9.23;;
45252;SDS011;63171;50.520;30.486;2022-12-07T03:13:41;24.00;;;12.07;;
45252;SDS011;63171;50.520;30.486;2022-12-07T03:14:40;18.00;;;10.48;;
45252;SDS011;63171;50.520;30.486;2022-12-07T03:15:35;21.50;;;9.68;;
45252;SDS011;63171;50.520;30.486;2022-12-07T03:16:31;17.13;;;11.27;;
45252;SDS011;63171;50.520;30.486;2022-12-07T03:17:26;19.55;;;9.85;;
45252;SDS011;63171;50.520;30.486;2022-12-07T03:18:22;17.77;;;11.82;;
45252;SDS011;63171;50.520;30.486;2022-12-07T03:19:15;18.20;;;10.98;;
45252;SDS011;63171;50.520;30.486;2022-12-07T03:20:07;17.67;;;10.25;;
45252;SDS011;63171;50.520;30.486;2022-12-07T03:21:02;20.60;;;11.50;;
45252;SDS011;63171;50.520;30.486;2022-12-07T03:21:56;19.83;;;11.77;;
45252;SDS011;63171;50.520;30.486;2022-12-07T03:22:50;19.60;;;9.07;;
45252;SDS011;63171;50.520;30.486;2022-12-07T03:23:43;19.60;;;10.68;;
45252;SDS011;63171;50.520;30.486;2022-12-07T03:24:39;23.73;;;11.10;;
45252;SDS011;63171;50.520;30.486;2022-12-07T03:25:31;21.88;;;11.32;;
45252;SDS011;63171;50.520;30.486;2022-12-07T03:26:26;18.30;;;11.30;;
45252;SDS011;63171;50.520;30.486;2022-12-07T03:27:21;23.92;;;12.13;;
45252;SDS011;63171;50.520;30.486;2022-12-07T03:28:17;16.25;;;11.25;;
45252;SDS011;63171;50.520;30.486;2022-12-07T03:29:11;21.70;;;11.77;;
45252;SDS011;63171;50.520;30.486;2022-12-07T03:30:10;20.20;;;11.30;;
45252;SDS011;63171;50.520;30.486;2022-12-07T03:31:05;18.48;;;11.27;;
45252;SDS011;63171;50.520;30.486;2022-12-07T03:32:03;23.35;;;11.45;;
45252;SDS011;63171;50.520;30.486;2022-12-07T03:32:59;24.90;;;11.10;;
45252;SDS011;63171;50.520;30.486;2022-12-07T03:33:56;20.10;;;10.63;;
45252;SDS011;63171;50.520;30.486;2022-12-07T03:34:52;21.45;;;10.85;;
45252;SDS011;63171;50.520;30.486;2022-12-07T03:35:50;27.52;;;11.88;;
45252;SDS011;63171;50.520;30.486;2022-12-07T03:36:46;29.85;;;11.18;;
45252;SDS011;63171;50.520;30.486;2022-12-07T03:37:40;19.70;;;10.95;;
45252;SDS011;63171;50.520;30.486;2022-12-07T03:38:36;17.45;;;10.90;;
45252;SDS011;63171;50.520;30.486;2022-12-07T03:39:32;23.20;;;10.82;;
45252;SDS011;63171;50.520;30.486;2022-12-07T03:40:28;17.08;;;11.73;;
45252;SDS011;63171;50.520;30.486;2022-12-07T03:41:24;18.33;;;10.65;;
45252;SDS011;63171;50.520;30.486;2022-12-07T03:42:16;22.63;;;11.43;;
45252;SDS011;63171;50.520;30.486;2022-12-07T03:43:07;20.27;;;11.90;;
45252;SDS011;63171;50.520;30.486;2022-12-07T03:43:57;16.63;;;11.02;;
45252;SDS011;63171;50.520;30.486;2022-12-07T03:44:48;23.67;;;12.18;;
45252;SDS011;63171;50.520;30.486;2022-12-07T03:45:41;20.35;;;10.68;;
45252;SDS011;63171;50.520;30.486;2022-12-07T03:46:37;20.65;;;9.98;;
45252;SDS011;63171;50.520;30.486;2022-12-07T03:47:34;20.55;;;9.60;;
45252;SDS011;63171;50.520;30.486;2022-12-07T03:48:32;19.17;;;10.55;;
45252;SDS011;63171;50.520;30.486;2022-12-07T03:49:27;16.55;;;9.38;;
45252;SDS011;63171;50.520;30.486;2022-12-07T03:50:25;17.27;;;9.10;;
45252;SDS011;63171;50.520;30.486;2022-12-07T03:51:22;19.33;;;10.23;;
45252;SDS011;63171;50.520;30.486;2022-12-07T03:52:18;19.92;;;10.27;;
45252;SDS011;63171;50.520;30.486;2022-12-07T03:53:15;20.92;;;9.60;;
45252;SDS011;63171;50.520;30.486;2022-12-07T03:54:11;19.63;;;10.27;;
45252;SDS011;63171;50.520;30.486;2022-12-07T03:55:06;15.52;;;8.98;;
45252;SDS011;63171;50.520;30.486;2022-12-07T03:56:02;20.60;;;10.18;;
45252;SDS011;63171;50.520;30.486;2022-12-07T03:56:53;18.83;;;10.80;;
45252;SDS011;63171;50.520;30.486;2022-12-07T03:57:46;23.38;;;10.30;;
45252;SDS011;63171;50.520;30.486;2022-12-07T03:58:39;28.50;;;10.95;;
45252;SDS011;63171;50.520;30.486;2022-12-07T03:59:31;20.52;;;10.82;;
45252;SDS011;63171;50.520;30.486;2022-12-07T04:00:22;24.75;;;10.15;;
45252;SDS011;63171;50.520;30.486;2022-12-07T04:01:14;17.38;;;10.82;;
45252;SDS011;63171;50.520;30.486;2022-12-07T04:02:05;21.88;;;10.70;;
45252;SDS011;63171;50.520;30.486;2022-12-07T04:02:57;23.10;;;11.07;;
45252;SDS011;63171;50.520;30.486;2022-12-07T04:03:47;17.42;;;10.35;;
45252;SDS011;63171;50.520;30.486;2022-12-07T04:04:38;18.63;;;10.57;;
45252;SDS011;63171;50.520;30.486;2022-12-07T04:05:28;19.67;;;10.52;;
45252;SDS011;63171;50.520;30.486;2022-12-07T04:06:19;17.58;;;10.07;;
45252;SDS011;63171;50.520;30.486;2022-12-07T04:07:09;16.65;;;10.05;;
45252;SDS011;63171;50.520;30.486;2022-12-07T04:08:00;22.27;;;10.10;;
45252;SDS011;63171;50.520;30.486;2022-12-07T04:08:49;16.23;;;10.77;;
45252;SDS011;63171;50.520;30.486;2022-12-07T04:09:40;15.63;;;9.88;;
45252;SDS011;63171;50.520;30.486;2022-12-07T04:10:30;17.77;;;9.10;;
45252;SDS011;63171;50.520;30.486;2022-12-07T04:11:21;21.08;;;10.45;;
45252;SDS011;63171;50.520;30.486;2022-12-07T04:12:11;15.57;;;10.48;;
45252;SDS011;63171;50.520;30.486;2022-12-07T04:13:02;18.17;;;9.27;;
45252;SDS011;63171;50.520;30.486;2022-12-07T04:13:51;16.90;;;11.20;;
45252;SDS011;63171;50.520;30.486;2022-12-07T04:15:00;14.82;;;10.43;;
45252;SDS011;63171;50.520;30.486;2022-12-07T04:15:50;16.42;;;10.32;;
45252;SDS011;63171;50.520;30.486;2022-12-07T04:16:41;17.65;;;10.52;;
45252;SDS011;63171;50.520;30.486;2022-12-07T04:17:32;17.40;;;10.18;;
45252;SDS011;63171;50.520;30.486;2022-12-07T04:18:22;23.63;;;10.60;;
45252;SDS011;63171;50.520;30.486;2022-12-07T04:19:13;19.75;;;11.60;;
45252;SDS011;63171;50.520;30.486;2022-12-07T04:20:04;18.42;;;10.13;;
45252;SDS011;63171;50.520;30.486;2022-12-07T04:20:56;18.33;;;10.88;;
45252;SDS011;63171;50.520;30.486;2022-12-07T04:21:46;19.65;;;11.85;;
45252;SDS011;63171;50.520;30.486;2022-12-07T04:22:37;18.45;;;11.13;;
45252;SDS011;63171;50.520;30.486;2022-12-07T04:23:27;21.52;;;11.20;;
45252;SDS011;63171;50.520;30.486;2022-12-07T04:25:07;16.38;;;9.15;;
45252;SDS011;63171;50.520;30.486;2022-12-07T04:25:58;17.98;;;9.00;;
45252;SDS011;63171;50.520;30.486;2022-12-07T04:26:48;16.27;;;10.13;;
45252;SDS011;63171;50.520;30.486;2022-12-07T04:27:39;16.40;;;9.77;;
45252;SDS011;63171;50.520;30.486;2022-12-07T04:28:29;21.83;;;8.45;;
45252;SDS011;63171;50.520;30.486;2022-12-07T04:29:19;18.30;;;9.68;;
45252;SDS011;63171;50.520;30.486;2022-12-07T04:30:10;20.23;;;9.93;;
45252;SDS011;63171;50.520;30.486;2022-12-07T04:31:00;17.10;;;9.50;;
45252;SDS011;63171;50.520;30.486;2022-12-07T04:31:52;13.65;;;9.73;;
45252;SDS011;63171;50.520;30.486;2022-12-07T04:32:42;19.63;;;10.52;;
45252;SDS011;63171;50.520;30.486;2022-12-07T04:33:33;12.82;;;9.50;;
45252;SDS011;63171;50.520;30.486;2022-12-07T04:34:24;19.67;;;9.45;;
45252;SDS011;63171;50.520;30.486;2022-12-07T04:35:15;19.85;;;11.65;;
45252;SDS011;63171;50.520;30.486;2022-12-07T04:36:05;20.10;;;9.60;;
45252;SDS011;63171;50.520;30.486;2022-12-07T04:36:56;17.55;;;10.50;;
45252;SDS011;63171;50.520;30.486;2022-12-07T04:37:45;18.40;;;8.73;;
45252;SDS011;63171;50.520;30.486;2022-12-07T04:38:35;18.10;;;8.52;;
45252;SDS011;63171;50.520;30.486;2022-12-07T04:39:27;14.00;;;8.60;;
45252;SDS011;63171;50.520;30.486;2022-12-07T04:40:17;15.50;;;9.02;;
45252;SDS011;63171;50.520;30.486;2022-12-07T04:41:08;18.92;;;10.18;;
45252;SDS011;63171;50.520;30.486;2022-12-07T04:41:59;15.57;;;9.10;;
45252;SDS011;63171;50.520;30.486;2022-12-07T04:42:50;14.45;;;8.45;;
45252;SDS011;63171;50.520;30.486;2022-12-07T04:43:40;12.90;;;8.27;;
45252;SDS011;63171;50.520;30.486;2022-12-07T04:44:31;14.13;;;8.98;;
45252;SDS011;63171;50.520;30.486;2022-12-07T04:45:21;16.95;;;9.10;;
45252;SDS011;63171;50.520;30.486;2022-12-07T04:46:11;17.67;;;9.40;;
45252;SDS011;63171;50.520;30.486;2022-12-07T04:47:02;18.58;;;8.75;;
45252;SDS011;63171;50.520;30.486;2022-12-07T04:47:53;15.98;;;9.25;;
45252;SDS011;63171;50.520;30.486;2022-12-07T04:48:43;21.42;;;11.05;;
45252;SDS011;63171;50.520;30.486;2022-12-07T04:49:33;16.52;;;8.98;;
45252;SDS011;63171;50.520;30.486;2022-12-07T04:50:23;16.77;;;8.60;;
45252;SDS011;63171;50.520;30.486;2022-12-07T04:51:14;12.77;;;7.40;;
45252;SDS011;63171;50.520;30.486;2022-12-07T04:52:07;17.63;;;8.88;;
45252;SDS011;63171;50.520;30.486;2022-12-07T04:52:58;11.05;;;8.30;;
45252;SDS011;63171;50.520;30.486;2022-12-07T04:53:48;11.48;;;9.07;;
45252;SDS011;63171;50.520;30.486;2022-12-07T04:54:39;13.70;;;7.68;;
45252;SDS011;63171;50.520;30.486;2022-12-07T04:55:29;21.77;;;9.00;;
45252;SDS011;63171;50.520;30.486;2022-12-07T04:56:20;15.45;;;9.55;;
45252;SDS011;63171;50.520;30.486;2022-12-07T04:57:11;14.85;;;8.27;;
45252;SDS011;63171;50.520;30.486;2022-12-07T04:58:02;16.48;;;9.20;;
45252;SDS011;63171;50.520;30.486;2022-12-07T04:58:52;16.35;;;8.85;;
45252;SDS011;63171;50.520;30.486;2022-12-07T04:59:44;18.55;;;9.45;;
45252;SDS011;63171;50.520;30.486;2022-12-07T05:00:33;15.63;;;9.00;;
45252;SDS011;63171;50.520;30.486;2022-12-07T05:01:24;15.05;;;8.77;;
45252;SDS011;63171;50.520;30.486;2022-12-07T05:02:15;15.07;;;10.30;;
45252;SDS011;63171;50.520;30.486;2022-12-07T05:03:06;12.27;;;8.65;;
45252;SDS011;63171;50.520;30.486;2022-12-07T05:03:56;16.60;;;10.15;;
45252;SDS011;63171;50.520;30.486;2022-12-07T05:04:47;12.85;;;8.35;;
45252;SDS011;63171;50.520;30.486;2022-12-07T05:05:39;17.13;;;8.32;;
45252;SDS011;63171;50.520;30.486;2022-12-07T05:06:30;11.98;;;9.45;;
45252;SDS011;63171;50.520;30.486;2022-12-07T05:07:20;11.90;;;8.50;;
45252;SDS011;63171;50.520;30.486;2022-12-07T05:08:11;17.40;;;9.73;;
45252;SDS011;63171;50.520;30.486;2022-12-07T05:09:01;11.63;;;8.85;;
45252;SDS011;63171;50.520;30.486;2022-12-07T05:09:52;14.63;;;8.82;;
45252;SDS011;63171;50.520;30.486;2022-12-07T05:10:42;16.35;;;10.25;;
45252;SDS011;63171;50.520;30.486;2022-12-07T05:11:33;15.65;;;8.77;;
45252;SDS011;63171;50.520;30.486;2022-12-07T05:12:28;11.32;;;8.45;;
45252;SDS011;63171;50.520;30.486;2022-12-07T05:13:19;12.77;;;8.55;;
45252;SDS011;63171;50.520;30.486;2022-12-07T05:14:10;13.25;;;8.55;;
45252;SDS011;63171;50.520;30.486;2022-12-07T05:15:03;17.95;;;8.75;;
45252;SDS011;63171;50.520;30.486;2022-12-07T05:15:53;18.65;;;9.65;;
45252;SDS011;63171;50.520;30.486;2022-12-07T05:16:44;19.33;;;8.18;;
45252;SDS011;63171;50.520;30.486;2022-12-07T05:17:37;18.00;;;8.43;;